sensor_id;sensor_type;location;lat;lon;timestamp;P1;durP1;ratioP1;P2;durP2;ratioP2
16689;SDS011;8458;52.220;9.884;2023-02-28T00:02:25;2.43;;;2.23;;
16689;SDS011;8458;52.220;9.884;2023-02-28T00:04:51;2.23;;;2.00;;
16689;SDS011;8458;52.220;9.884;2023-02-28T00:07:26;2.40;;;2.20;;
16689;SDS011;8458;52.220;9.884;2023-02-28T00:09:53;2.63;;;2.20;;
16689;SDS011;8458;52.220;9.884;2023-02-28T00:12:20;2.70;;;2.50;;
16689;SDS011;8458;52.220;9.884;2023-02-28T00:14:46;2.70;;;2.47;;
16689;SDS011;8458;52.220;9.884;2023-02-28T00:17:13;2.53;;;2.40;;
16689;SDS011;8458;52.220;9.884;2023-02-28T00:19:39;2.47;;;2.27;;
16689;SDS011;8458;52.220;9.884;2023-02-28T00:22:06;2.40;;;2.20;;
16689;SDS011;8458;52.220;9.884;2023-02-28T00:24:32;2.37;;;2.17;;
16689;SDS011;8458;52.220;9.884;2023-02-28T00:27:00;2.77;;;2.37;;
16689;SDS011;8458;52.220;9.884;2023-02-28T00:29:27;3.07;;;2.87;;
16689;SDS011;8458;52.220;9.884;2023-02-28T00:31:53;2.57;;;2.10;;
16689;SDS011;8458;52.220;9.884;2023-02-28T00:34:19;2.50;;;2.30;;
16689;SDS011;8458;52.220;9.884;2023-02-28T00:36:46;3.13;;;2.87;;
16689;SDS011;8458;52.220;9.884;2023-02-28T00:39:14;2.63;;;2.43;;
16689;SDS011;8458;52.220;9.884;2023-02-28T00:41:41;2.40;;;2.13;;
16689;SDS011;8458;52.220;9.884;2023-02-28T00:44:09;2.40;;;2.20;;
16689;SDS011;8458;52.220;9.884;2023-02-28T00:46:35;2.37;;;2.27;;
16689;SDS011;8458;52.220;9.884;2023-02-28T00:49:02;2.43;;;2.23;;
16689;SDS011;8458;52.220;9.884;2023-02-28T00:51:28;2.70;;;2.50;;
16689;SDS011;8458;52.220;9.884;2023-02-28T00:53:55;2.60;;;2.40;;
16689;SDS011;8458;52.220;9.884;2023-02-28T00:56:22;2.87;;;2.40;;
16689;SDS011;8458;52.220;9.884;2023-02-28T00:58:48;2.70;;;2.30;;
16689;SDS011;8458;52.220;9.884;2023-02-28T01:01:16;2.77;;;2.57;;
16689;SDS011;8458;52.220;9.884;2023-02-28T01:03:42;2.70;;;2.50;;
16689;SDS011;8458;52.220;9.884;2023-02-28T01:06:09;2.93;;;2.50;;
16689;SDS011;8458;52.220;9.884;2023-02-28T01:08:35;2.50;;;2.23;;
16689;SDS011;8458;52.220;9.884;2023-02-28T01:11:06;3.23;;;2.43;;
16689;SDS011;8458;52.220;9.884;2023-02-28T01:13:34;3.20;;;2.90;;
16689;SDS011;8458;52.220;9.884;2023-02-28T01:16:00;2.77;;;2.57;;
16689;SDS011;8458;52.220;9.884;2023-02-28T01:18:28;3.07;;;2.73;;
16689;SDS011;8458;52.220;9.884;2023-02-28T01:20:55;3.00;;;2.70;;
16689;SDS011;8458;52.220;9.884;2023-02-28T01:23:22;2.70;;;2.50;;
16689;SDS011;8458;52.220;9.884;2023-02-28T01:25:50;2.60;;;2.40;;
16689;SDS011;8458;52.220;9.884;2023-02-28T01:28:16;3.37;;;2.97;;
16689;SDS011;8458;52.220;9.884;2023-02-28T01:30:46;3.10;;;2.87;;
16689;SDS011;8458;52.220;9.884;2023-02-28T01:33:14;3.00;;;2.80;;
16689;SDS011;8458;52.220;9.884;2023-02-28T01:35:43;2.93;;;2.53;;
16689;SDS011;8458;52.220;9.884;2023-02-28T01:38:09;2.87;;;2.67;;
16689;SDS011;8458;52.220;9.884;2023-02-28T01:40:35;3.00;;;2.70;;
16689;SDS011;8458;52.220;9.884;2023-02-28T01:43:02;2.70;;;2.50;;
16689;SDS011;8458;52.220;9.884;2023-02-28T01:45:29;2.87;;;2.63;;
16689;SDS011;8458;52.220;9.884;2023-02-28T01:47:58;3.00;;;2.80;;
16689;SDS011;8458;52.220;9.884;2023-02-28T01:50:28;2.87;;;2.67;;
16689;SDS011;8458;52.220;9.884;2023-02-28T01:53:03;2.80;;;2.60;;
16689;SDS011;8458;52.220;9.884;2023-02-28T01:55:32;3.03;;;2.73;;
16689;SDS011;8458;52.220;9.884;2023-02-28T01:58:01;3.07;;;2.87;;
16689;SDS011;8458;52.220;9.884;2023-02-28T02:00:30;2.77;;;2.57;;
16689;SDS011;8458;52.220;9.884;2023-02-28T02:02:58;2.53;;;2.33;;
16689;SDS011;8458;52.220;9.884;2023-02-28T02:05:29;2.70;;;2.50;;
16689;SDS011;8458;52.220;9.884;2023-02-28T02:07:57;2.77;;;2.57;;
16689;SDS011;8458;52.220;9.884;2023-02-28T02:10:31;2.80;;;2.60;;
16689;SDS011;8458;52.220;9.884;2023-02-28T02:13:05;2.83;;;2.63;;
16689;SDS011;8458;52.220;9.884;2023-02-28T02:15:41;3.00;;;2.80;;
16689;SDS011;8458;52.220;9.884;2023-02-28T02:18:17;3.43;;;3.13;;
16689;SDS011;8458;52.220;9.884;2023-02-28T02:27:09;2.90;;;2.70;;
16689;SDS011;8458;52.220;9.884;2023-02-28T02:35:48;3.03;;;2.83;;
16689;SDS011;8458;52.220;9.884;2023-02-28T02:38:24;3.80;;;3.50;;
16689;SDS011;8458;52.220;9.884;2023-02-28T02:41:02;3.83;;;3.43;;
16689;SDS011;8458;52.220;9.884;2023-02-28T02:43:34;4.10;;;3.30;;
16689;SDS011;8458;52.220;9.884;2023-02-28T02:46:04;4.30;;;4.00;;
16689;SDS011;8458;52.220;9.884;2023-02-28T02:48:36;4.80;;;3.80;;
16689;SDS011;8458;52.220;9.884;2023-02-28T02:51:09;5.30;;;4.90;;
16689;SDS011;8458;52.220;9.884;2023-02-28T02:53:40;7.00;;;5.07;;
16689;SDS011;8458;52.220;9.884;2023-02-28T02:56:10;5.73;;;5.33;;
16689;SDS011;8458;52.220;9.884;2023-02-28T02:58:40;6.60;;;6.00;;
16689;SDS011;8458;52.220;9.884;2023-02-28T03:01:10;6.10;;;5.50;;
16689;SDS011;8458;52.220;9.884;2023-02-28T03:03:42;7.33;;;6.73;;
16689;SDS011;8458;52.220;9.884;2023-02-28T03:06:10;7.30;;;6.70;;
16689;SDS011;8458;52.220;9.884;2023-02-28T03:08:37;7.10;;;6.50;;
16689;SDS011;8458;52.220;9.884;2023-02-28T03:11:04;7.33;;;6.63;;
16689;SDS011;8458;52.220;9.884;2023-02-28T03:13:47;6.43;;;5.93;;
16689;SDS011;8458;52.220;9.884;2023-02-28T03:16:29;6.03;;;5.53;;
16689;SDS011;8458;52.220;9.884;2023-02-28T03:19:10;5.63;;;5.13;;
16689;SDS011;8458;52.220;9.884;2023-02-28T03:22:01;5.27;;;4.87;;
16689;SDS011;8458;52.220;9.884;2023-02-28T03:24:40;4.40;;;4.10;;
16689;SDS011;8458;52.220;9.884;2023-02-28T03:27:14;3.30;;;3.00;;
16689;SDS011;8458;52.220;9.884;2023-02-28T03:29:47;4.50;;;3.37;;
16689;SDS011;8458;52.220;9.884;2023-02-28T03:32:20;4.00;;;3.10;;
16689;SDS011;8458;52.220;9.884;2023-02-28T03:34:51;3.17;;;2.87;;
16689;SDS011;8458;52.220;9.884;2023-02-28T03:37:24;2.73;;;2.53;;
16689;SDS011;8458;52.220;9.884;2023-02-28T03:39:55;9.80;;;2.87;;
16689;SDS011;8458;52.220;9.884;2023-02-28T03:42:25;3.10;;;2.80;;
16689;SDS011;8458;52.220;9.884;2023-02-28T03:44:55;2.90;;;2.70;;
16689;SDS011;8458;52.220;9.884;2023-02-28T03:47:27;3.50;;;2.90;;
16689;SDS011;8458;52.220;9.884;2023-02-28T03:49:59;3.13;;;2.83;;
16689;SDS011;8458;52.220;9.884;2023-02-28T03:52:34;3.00;;;2.77;;
16689;SDS011;8458;52.220;9.884;2023-02-28T03:55:06;2.87;;;2.57;;
16689;SDS011;8458;52.220;9.884;2023-02-28T03:57:37;2.90;;;2.70;;
16689;SDS011;8458;52.220;9.884;2023-02-28T04:00:10;2.80;;;2.60;;
16689;SDS011;8458;52.220;9.884;2023-02-28T04:02:40;3.13;;;2.93;;
16689;SDS011;8458;52.220;9.884;2023-02-28T04:05:07;2.90;;;2.70;;
16689;SDS011;8458;52.220;9.884;2023-02-28T04:07:35;3.23;;;3.00;;
16689;SDS011;8458;52.220;9.884;2023-02-28T04:10:02;3.27;;;2.83;;
16689;SDS011;8458;52.220;9.884;2023-02-28T04:12:29;2.90;;;2.60;;
16689;SDS011;8458;52.220;9.884;2023-02-28T04:14:56;2.93;;;2.70;;
16689;SDS011;8458;52.220;9.884;2023-02-28T04:17:22;3.63;;;3.03;;
16689;SDS011;8458;52.220;9.884;2023-02-28T04:19:49;3.27;;;2.90;;
16689;SDS011;8458;52.220;9.884;2023-02-28T04:22:15;3.20;;;2.60;;
16689;SDS011;8458;52.220;9.884;2023-02-28T04:24:44;3.07;;;2.70;;
16689;SDS011;8458;52.220;9.884;2023-02-28T04:27:10;2.83;;;2.63;;
16689;SDS011;8458;52.220;9.884;2023-02-28T04:29:37;6.07;;;2.80;;
16689;SDS011;8458;52.220;9.884;2023-02-28T04:32:03;3.00;;;2.77;;
16689;SDS011;8458;52.220;9.884;2023-02-28T04:34:31;3.23;;;2.90;;
16689;SDS011;8458;52.220;9.884;2023-02-28T04:36:58;3.00;;;2.80;;
16689;SDS011;8458;52.220;9.884;2023-02-28T04:39:25;2.70;;;2.50;;
16689;SDS011;8458;52.220;9.884;2023-02-28T04:41:53;2.87;;;2.60;;
16689;SDS011;8458;52.220;9.884;2023-02-28T04:44:19;3.63;;;2.70;;
16689;SDS011;8458;52.220;9.884;2023-02-28T04:46:47;2.87;;;2.67;;
16689;SDS011;8458;52.220;9.884;2023-02-28T04:49:15;2.80;;;2.53;;
16689;SDS011;8458;52.220;9.884;2023-02-28T04:51:41;4.20;;;3.87;;
16689;SDS011;8458;52.220;9.884;2023-02-28T04:54:08;3.93;;;3.53;;
16689;SDS011;8458;52.220;9.884;2023-02-28T04:56:35;4.77;;;4.47;;
16689;SDS011;8458;52.220;9.884;2023-02-28T04:59:03;4.20;;;3.90;;
16689;SDS011;8458;52.220;9.884;2023-02-28T05:01:30;3.80;;;3.53;;
16689;SDS011;8458;52.220;9.884;2023-02-28T05:03:59;3.47;;;3.17;;
16689;SDS011;8458;52.220;9.884;2023-02-28T05:06:28;3.47;;;3.27;;
16689;SDS011;8458;52.220;9.884;2023-02-28T05:08:57;3.37;;;3.03;;
16689;SDS011;8458;52.220;9.884;2023-02-28T05:11:24;3.20;;;2.90;;
16689;SDS011;8458;52.220;9.884;2023-02-28T05:13:54;3.33;;;3.13;;
16689;SDS011;8458;52.220;9.884;2023-02-28T05:16:22;5.30;;;3.17;;
16689;SDS011;8458;52.220;9.884;2023-02-28T05:18:49;3.43;;;3.13;;
16689;SDS011;8458;52.220;9.884;2023-02-28T05:21:21;3.97;;;3.10;;
16689;SDS011;8458;52.220;9.884;2023-02-28T05:23:50;3.27;;;2.97;;
16689;SDS011;8458;52.220;9.884;2023-02-28T05:26:16;3.53;;;3.23;;
16689;SDS011;8458;52.220;9.884;2023-02-28T05:28:43;3.70;;;3.40;;
16689;SDS011;8458;52.220;9.884;2023-02-28T05:31:10;3.47;;;3.17;;
16689;SDS011;8458;52.220;9.884;2023-02-28T05:33:38;3.73;;;3.20;;
16689;SDS011;8458;52.220;9.884;2023-02-28T05:36:05;4.60;;;4.10;;
16689;SDS011;8458;52.220;9.884;2023-02-28T05:38:32;4.83;;;4.43;;
16689;SDS011;8458;52.220;9.884;2023-02-28T05:40:59;3.80;;;3.50;;
16689;SDS011;8458;52.220;9.884;2023-02-28T05:43:26;3.47;;;3.20;;
16689;SDS011;8458;52.220;9.884;2023-02-28T05:45:52;3.47;;;3.27;;
16689;SDS011;8458;52.220;9.884;2023-02-28T05:48:19;3.60;;;3.30;;
16689;SDS011;8458;52.220;9.884;2023-02-28T05:50:47;4.40;;;3.03;;
16689;SDS011;8458;52.220;9.884;2023-02-28T05:53:13;4.00;;;3.03;;
16689;SDS011;8458;52.220;9.884;2023-02-28T05:55:40;3.80;;;3.50;;
16689;SDS011;8458;52.220;9.884;2023-02-28T05:58:07;3.03;;;2.83;;
16689;SDS011;8458;52.220;9.884;2023-02-28T06:00:33;3.23;;;2.93;;
16689;SDS011;8458;52.220;9.884;2023-02-28T06:02:59;3.43;;;3.13;;
16689;SDS011;8458;52.220;9.884;2023-02-28T06:05:27;3.33;;;3.03;;
16689;SDS011;8458;52.220;9.884;2023-02-28T06:07:55;3.40;;;3.10;;
16689;SDS011;8458;52.220;9.884;2023-02-28T06:10:21;3.67;;;3.40;;
16689;SDS011;8458;52.220;9.884;2023-02-28T06:12:48;3.80;;;3.50;;
16689;SDS011;8458;52.220;9.884;2023-02-28T06:15:14;4.20;;;3.37;;
16689;SDS011;8458;52.220;9.884;2023-02-28T06:17:43;4.07;;;3.67;;
16689;SDS011;8458;52.220;9.884;2023-02-28T06:20:11;5.23;;;4.83;;
16689;SDS011;8458;52.220;9.884;2023-02-28T06:22:38;5.27;;;4.77;;
16689;SDS011;8458;52.220;9.884;2023-02-28T06:25:07;5.20;;;4.70;;
16689;SDS011;8458;52.220;9.884;2023-02-28T06:27:35;5.13;;;4.70;;
16689;SDS011;8458;52.220;9.884;2023-02-28T06:30:02;4.13;;;3.73;;
16689;SDS011;8458;52.220;9.884;2023-02-28T06:32:29;4.07;;;3.77;;
16689;SDS011;8458;52.220;9.884;2023-02-28T06:34:55;3.60;;;3.40;;
16689;SDS011;8458;52.220;9.884;2023-02-28T06:37:23;3.80;;;3.50;;
16689;SDS011;8458;52.220;9.884;2023-02-28T06:39:51;3.87;;;3.40;;
16689;SDS011;8458;52.220;9.884;2023-02-28T06:42:18;4.77;;;4.37;;
16689;SDS011;8458;52.220;9.884;2023-02-28T06:44:47;4.53;;;4.13;;
16689;SDS011;8458;52.220;9.884;2023-02-28T06:47:13;6.87;;;5.10;;
16689;SDS011;8458;52.220;9.884;2023-02-28T06:49:39;5.10;;;4.60;;
16689;SDS011;8458;52.220;9.884;2023-02-28T06:52:06;6.57;;;6.07;;
16689;SDS011;8458;52.220;9.884;2023-02-28T06:54:33;4.57;;;4.27;;
16689;SDS011;8458;52.220;9.884;2023-02-28T06:57:00;5.40;;;5.00;;
16689;SDS011;8458;52.220;9.884;2023-02-28T06:59:27;4.73;;;4.43;;
16689;SDS011;8458;52.220;9.884;2023-02-28T07:01:54;5.10;;;4.70;;
16689;SDS011;8458;52.220;9.884;2023-02-28T07:04:21;5.90;;;5.50;;
16689;SDS011;8458;52.220;9.884;2023-02-28T07:06:47;5.73;;;5.13;;
16689;SDS011;8458;52.220;9.884;2023-02-28T07:09:14;6.43;;;5.93;;
16689;SDS011;8458;52.220;9.884;2023-02-28T07:11:40;6.70;;;6.10;;
16689;SDS011;8458;52.220;9.884;2023-02-28T07:14:07;7.03;;;6.47;;
16689;SDS011;8458;52.220;9.884;2023-02-28T07:16:36;7.57;;;6.97;;
16689;SDS011;8458;52.220;9.884;2023-02-28T07:19:02;7.50;;;7.00;;
16689;SDS011;8458;52.220;9.884;2023-02-28T07:21:29;7.37;;;6.87;;
16689;SDS011;8458;52.220;9.884;2023-02-28T07:23:55;7.83;;;7.13;;
16689;SDS011;8458;52.220;9.884;2023-02-28T07:26:22;6.07;;;5.57;;
16689;SDS011;8458;52.220;9.884;2023-02-28T07:28:49;6.47;;;6.07;;
16689;SDS011;8458;52.220;9.884;2023-02-28T07:31:16;7.87;;;7.30;;
16689;SDS011;8458;52.220;9.884;2023-02-28T07:33:44;7.90;;;7.30;;
16689;SDS011;8458;52.220;9.884;2023-02-28T07:36:11;9.00;;;8.40;;
16689;SDS011;8458;52.220;9.884;2023-02-28T07:38:40;8.47;;;7.77;;
16689;SDS011;8458;52.220;9.884;2023-02-28T07:41:07;7.43;;;6.87;;
16689;SDS011;8458;52.220;9.884;2023-02-28T07:43:34;7.37;;;6.87;;
16689;SDS011;8458;52.220;9.884;2023-02-28T07:46:01;7.70;;;7.10;;
16689;SDS011;8458;52.220;9.884;2023-02-28T07:48:28;10.13;;;7.70;;
16689;SDS011;8458;52.220;9.884;2023-02-28T07:50:57;6.97;;;6.47;;
16689;SDS011;8458;52.220;9.884;2023-02-28T07:53:24;7.47;;;6.83;;
16689;SDS011;8458;52.220;9.884;2023-02-28T07:55:51;6.90;;;6.40;;
16689;SDS011;8458;52.220;9.884;2023-02-28T07:58:21;5.70;;;5.30;;
16689;SDS011;8458;52.220;9.884;2023-02-28T08:00:48;6.17;;;5.67;;
16689;SDS011;8458;52.220;9.884;2023-02-28T08:03:14;5.70;;;5.20;;
16689;SDS011;8458;52.220;9.884;2023-02-28T08:05:41;5.60;;;5.20;;
16689;SDS011;8458;52.220;9.884;2023-02-28T08:08:09;5.37;;;4.90;;
16689;SDS011;8458;52.220;9.884;2023-02-28T08:10:36;5.73;;;5.30;;
16689;SDS011;8458;52.220;9.884;2023-02-28T08:13:03;4.93;;;4.53;;
16689;SDS011;8458;52.220;9.884;2023-02-28T08:15:29;5.33;;;4.70;;
16689;SDS011;8458;52.220;9.884;2023-02-28T08:17:56;4.93;;;4.57;;
16689;SDS011;8458;52.220;9.884;2023-02-28T08:20:22;6.43;;;5.60;;
16689;SDS011;8458;52.220;9.884;2023-02-28T08:22:49;7.30;;;5.03;;
16689;SDS011;8458;52.220;9.884;2023-02-28T08:25:17;4.67;;;4.27;;
16689;SDS011;8458;52.220;9.884;2023-02-28T08:27:43;4.57;;;4.17;;
16689;SDS011;8458;52.220;9.884;2023-02-28T08:30:10;4.20;;;3.90;;
16689;SDS011;8458;52.220;9.884;2023-02-28T08:32:38;4.47;;;4.07;;
16689;SDS011;8458;52.220;9.884;2023-02-28T08:35:05;4.67;;;4.27;;
16689;SDS011;8458;52.220;9.884;2023-02-28T08:37:34;4.47;;;4.10;;
16689;SDS011;8458;52.220;9.884;2023-02-28T08:40:00;4.10;;;3.70;;
16689;SDS011;8458;52.220;9.884;2023-02-28T08:42:28;3.70;;;3.40;;
16689;SDS011;8458;52.220;9.884;2023-02-28T08:44:55;4.07;;;3.77;;
16689;SDS011;8458;52.220;9.884;2023-02-28T08:47:22;4.17;;;3.30;;
16689;SDS011;8458;52.220;9.884;2023-02-28T08:49:48;3.20;;;3.00;;
16689;SDS011;8458;52.220;9.884;2023-02-28T08:52:15;3.23;;;2.93;;
16689;SDS011;8458;52.220;9.884;2023-02-28T08:54:41;3.17;;;2.87;;
16689;SDS011;8458;52.220;9.884;2023-02-28T08:57:08;2.27;;;2.13;;
16689;SDS011;8458;52.220;9.884;2023-02-28T08:59:36;2.27;;;2.07;;
16689;SDS011;8458;52.220;9.884;2023-02-28T09:02:02;2.50;;;2.30;;
16689;SDS011;8458;52.220;9.884;2023-02-28T09:04:29;2.37;;;2.10;;
16689;SDS011;8458;52.220;9.884;2023-02-28T09:06:56;2.60;;;2.40;;
16689;SDS011;8458;52.220;9.884;2023-02-28T09:09:22;1.90;;;1.80;;
16689;SDS011;8458;52.220;9.884;2023-02-28T09:11:49;2.23;;;2.13;;
16689;SDS011;8458;52.220;9.884;2023-02-28T09:14:15;2.27;;;2.00;;
16689;SDS011;8458;52.220;9.884;2023-02-28T09:16:43;1.73;;;1.63;;
16689;SDS011;8458;52.220;9.884;2023-02-28T09:19:10;1.70;;;1.60;;
16689;SDS011;8458;52.220;9.884;2023-02-28T09:21:37;2.47;;;1.83;;
16689;SDS011;8458;52.220;9.884;2023-02-28T09:24:03;2.70;;;1.93;;
16689;SDS011;8458;52.220;9.884;2023-02-28T09:26:30;2.43;;;1.80;;
16689;SDS011;8458;52.220;9.884;2023-02-28T09:28:57;7.17;;;2.20;;
16689;SDS011;8458;52.220;9.884;2023-02-28T09:31:25;3.30;;;2.10;;
16689;SDS011;8458;52.220;9.884;2023-02-28T09:33:54;3.43;;;2.37;;
16689;SDS011;8458;52.220;9.884;2023-02-28T09:36:22;2.30;;;2.10;;
16689;SDS011;8458;52.220;9.884;2023-02-28T09:38:49;1.73;;;1.57;;
16689;SDS011;8458;52.220;9.884;2023-02-28T09:41:19;1.80;;;1.70;;
16689;SDS011;8458;52.220;9.884;2023-02-28T09:43:47;1.83;;;1.73;;
16689;SDS011;8458;52.220;9.884;2023-02-28T09:46:21;2.00;;;1.70;;
16689;SDS011;8458;52.220;9.884;2023-02-28T09:48:55;1.83;;;1.70;;
16689;SDS011;8458;52.220;9.884;2023-02-28T09:54:10;2.23;;;1.90;;
16689;SDS011;8458;52.220;9.884;2023-02-28T09:56:44;1.97;;;1.80;;
16689;SDS011;8458;52.220;9.884;2023-02-28T09:59:15;2.00;;;1.60;;
16689;SDS011;8458;52.220;9.884;2023-02-28T10:01:52;2.93;;;2.20;;
16689;SDS011;8458;52.220;9.884;2023-02-28T10:04:33;2.00;;;1.90;;
16689;SDS011;8458;52.220;9.884;2023-02-28T10:07:10;2.00;;;1.90;;
16689;SDS011;8458;52.220;9.884;2023-02-28T10:09:46;2.40;;;1.97;;
16689;SDS011;8458;52.220;9.884;2023-02-28T10:12:17;2.00;;;1.83;;
16689;SDS011;8458;52.220;9.884;2023-02-28T10:14:46;1.63;;;1.53;;
16689;SDS011;8458;52.220;9.884;2023-02-28T10:17:17;1.87;;;1.77;;
16689;SDS011;8458;52.220;9.884;2023-02-28T10:19:49;1.87;;;1.77;;
16689;SDS011;8458;52.220;9.884;2023-02-28T10:22:25;1.93;;;1.73;;
16689;SDS011;8458;52.220;9.884;2023-02-28T10:24:56;3.03;;;1.90;;
16689;SDS011;8458;52.220;9.884;2023-02-28T10:27:28;2.27;;;1.80;;
16689;SDS011;8458;52.220;9.884;2023-02-28T10:29:57;2.17;;;1.90;;
16689;SDS011;8458;52.220;9.884;2023-02-28T10:32:25;2.63;;;2.00;;
16689;SDS011;8458;52.220;9.884;2023-02-28T10:34:57;3.07;;;2.10;;
16689;SDS011;8458;52.220;9.884;2023-02-28T10:37:26;2.73;;;1.83;;
16689;SDS011;8458;52.220;9.884;2023-02-28T10:39:52;4.53;;;2.07;;
16689;SDS011;8458;52.220;9.884;2023-02-28T10:42:20;2.60;;;1.73;;
16689;SDS011;8458;52.220;9.884;2023-02-28T10:44:57;1.83;;;1.60;;
16689;SDS011;8458;52.220;9.884;2023-02-28T10:47:31;2.27;;;1.77;;
16689;SDS011;8458;52.220;9.884;2023-02-28T10:50:01;2.27;;;1.53;;
16689;SDS011;8458;52.220;9.884;2023-02-28T10:52:36;2.53;;;1.60;;
16689;SDS011;8458;52.220;9.884;2023-02-28T10:55:15;2.33;;;2.07;;
16689;SDS011;8458;52.220;9.884;2023-02-28T10:57:46;2.57;;;2.30;;
16689;SDS011;8458;52.220;9.884;2023-02-28T11:00:14;2.63;;;1.93;;
16689;SDS011;8458;52.220;9.884;2023-02-28T11:02:43;2.10;;;1.70;;
16689;SDS011;8458;52.220;9.884;2023-02-28T11:05:25;2.87;;;1.60;;
16689;SDS011;8458;52.220;9.884;2023-02-28T11:07:54;2.03;;;1.77;;
16689;SDS011;8458;52.220;9.884;2023-02-28T11:10:24;1.77;;;1.43;;
16689;SDS011;8458;52.220;9.884;2023-02-28T11:12:55;2.70;;;1.40;;
16689;SDS011;8458;52.220;9.884;2023-02-28T11:15:23;2.23;;;1.50;;
16689;SDS011;8458;52.220;9.884;2023-02-28T11:17:55;2.07;;;1.60;;
16689;SDS011;8458;52.220;9.884;2023-02-28T11:20:25;1.50;;;1.40;;
16689;SDS011;8458;52.220;9.884;2023-02-28T11:22:53;1.93;;;1.60;;
16689;SDS011;8458;52.220;9.884;2023-02-28T11:25:22;2.00;;;1.70;;
16689;SDS011;8458;52.220;9.884;2023-02-28T11:27:51;1.90;;;1.40;;
16689;SDS011;8458;52.220;9.884;2023-02-28T11:30:26;1.90;;;1.50;;
16689;SDS011;8458;52.220;9.884;2023-02-28T11:32:55;1.40;;;1.30;;
16689;SDS011;8458;52.220;9.884;2023-02-28T11:35:23;1.70;;;1.60;;
16689;SDS011;8458;52.220;9.884;2023-02-28T11:37:52;1.87;;;1.30;;
16689;SDS011;8458;52.220;9.884;2023-02-28T11:40:21;2.70;;;1.50;;
16689;SDS011;8458;52.220;9.884;2023-02-28T11:42:57;1.60;;;1.30;;
16689;SDS011;8458;52.220;9.884;2023-02-28T11:45:36;1.77;;;1.50;;
16689;SDS011;8458;52.220;9.884;2023-02-28T11:48:14;1.63;;;1.50;;
16689;SDS011;8458;52.220;9.884;2023-02-28T11:50:49;3.00;;;1.30;;
16689;SDS011;8458;52.220;9.884;2023-02-28T11:53:29;1.97;;;1.50;;
16689;SDS011;8458;52.220;9.884;2023-02-28T11:56:14;3.27;;;1.43;;
16689;SDS011;8458;52.220;9.884;2023-02-28T11:58:49;1.80;;;1.70;;
16689;SDS011;8458;52.220;9.884;2023-02-28T12:01:29;2.10;;;1.57;;
16689;SDS011;8458;52.220;9.884;2023-02-28T12:04:10;2.30;;;2.20;;
16689;SDS011;8458;52.220;9.884;2023-02-28T12:06:45;2.67;;;1.60;;
16689;SDS011;8458;52.220;9.884;2023-02-28T12:09:20;1.40;;;1.30;;
16689;SDS011;8458;52.220;9.884;2023-02-28T12:12:00;1.43;;;1.33;;
16689;SDS011;8458;52.220;9.884;2023-02-28T12:17:33;1.53;;;1.20;;
16689;SDS011;8458;52.220;9.884;2023-02-28T12:20:16;1.50;;;1.07;;
16689;SDS011;8458;52.220;9.884;2023-02-28T12:22:52;1.57;;;1.43;;
16689;SDS011;8458;52.220;9.884;2023-02-28T12:25:36;2.03;;;1.53;;
16689;SDS011;8458;52.220;9.884;2023-02-28T12:28:12;2.53;;;1.43;;
16689;SDS011;8458;52.220;9.884;2023-02-28T12:30:44;2.07;;;1.20;;
16689;SDS011;8458;52.220;9.884;2023-02-28T12:33:16;2.00;;;1.17;;
16689;SDS011;8458;52.220;9.884;2023-02-28T12:35:47;1.20;;;1.10;;
16689;SDS011;8458;52.220;9.884;2023-02-28T12:38:19;1.53;;;1.00;;
16689;SDS011;8458;52.220;9.884;2023-02-28T12:40:49;1.63;;;1.37;;
16689;SDS011;8458;52.220;9.884;2023-02-28T12:43:20;1.70;;;1.37;;
16689;SDS011;8458;52.220;9.884;2023-02-28T12:45:50;1.87;;;1.20;;
16689;SDS011;8458;52.220;9.884;2023-02-28T12:48:20;1.33;;;1.23;;
16689;SDS011;8458;52.220;9.884;2023-02-28T12:50:51;2.80;;;1.37;;
16689;SDS011;8458;52.220;9.884;2023-02-28T12:53:21;1.50;;;1.23;;
16689;SDS011;8458;52.220;9.884;2023-02-28T12:55:56;2.07;;;1.00;;
16689;SDS011;8458;52.220;9.884;2023-02-28T12:58:36;1.23;;;1.13;;
16689;SDS011;8458;52.220;9.884;2023-02-28T13:10:21;1.83;;;1.40;;
16689;SDS011;8458;52.220;9.884;2023-02-28T13:12:49;2.23;;;1.30;;
16689;SDS011;8458;52.220;9.884;2023-02-28T13:15:19;1.70;;;1.33;;
16689;SDS011;8458;52.220;9.884;2023-02-28T13:17:49;2.47;;;1.13;;
16689;SDS011;8458;52.220;9.884;2023-02-28T13:20:18;1.73;;;1.40;;
16689;SDS011;8458;52.220;9.884;2023-02-28T13:22:46;1.27;;;1.17;;
16689;SDS011;8458;52.220;9.884;2023-02-28T13:31:31;1.30;;;1.20;;
16689;SDS011;8458;52.220;9.884;2023-02-28T13:36:41;1.20;;;1.10;;
16689;SDS011;8458;52.220;9.884;2023-02-28T13:42:30;2.00;;;1.10;;
16689;SDS011;8458;52.220;9.884;2023-02-28T13:45:21;1.20;;;1.03;;
16689;SDS011;8458;52.220;9.884;2023-02-28T13:47:52;1.30;;;1.20;;
16689;SDS011;8458;52.220;9.884;2023-02-28T13:56:00;1.40;;;1.30;;
16689;SDS011;8458;52.220;9.884;2023-02-28T13:58:39;1.50;;;1.40;;
16689;SDS011;8458;52.220;9.884;2023-02-28T14:01:21;1.20;;;1.10;;
16689;SDS011;8458;52.220;9.884;2023-02-28T14:04:11;1.20;;;1.10;;
16689;SDS011;8458;52.220;9.884;2023-02-28T14:06:55;1.37;;;1.27;;
16689;SDS011;8458;52.220;9.884;2023-02-28T14:09:24;1.67;;;1.50;;
16689;SDS011;8458;52.220;9.884;2023-02-28T14:11:53;1.47;;;1.37;;
16689;SDS011;8458;52.220;9.884;2023-02-28T14:17:24;1.30;;;1.20;;
16689;SDS011;8458;52.220;9.884;2023-02-28T14:19:52;1.40;;;1.30;;
16689;SDS011;8458;52.220;9.884;2023-02-28T14:22:24;1.60;;;1.50;;
16689;SDS011;8458;52.220;9.884;2023-02-28T14:25:08;1.30;;;1.20;;
16689;SDS011;8458;52.220;9.884;2023-02-28T14:27:43;1.43;;;1.27;;
16689;SDS011;8458;52.220;9.884;2023-02-28T14:30:29;1.87;;;1.10;;
16689;SDS011;8458;52.220;9.884;2023-02-28T14:33:13;1.40;;;1.30;;
16689;SDS011;8458;52.220;9.884;2023-02-28T14:35:52;1.40;;;1.23;;
16689;SDS011;8458;52.220;9.884;2023-02-28T14:38:27;1.57;;;1.47;;
16689;SDS011;8458;52.220;9.884;2023-02-28T14:40:58;1.40;;;1.30;;
16689;SDS011;8458;52.220;9.884;2023-02-28T14:43:29;1.50;;;1.40;;
16689;SDS011;8458;52.220;9.884;2023-02-28T14:45:56;1.83;;;1.20;;
16689;SDS011;8458;52.220;9.884;2023-02-28T14:48:25;1.77;;;1.50;;
16689;SDS011;8458;52.220;9.884;2023-02-28T14:50:53;1.40;;;1.30;;
16689;SDS011;8458;52.220;9.884;2023-02-28T14:53:23;1.73;;;1.27;;
16689;SDS011;8458;52.220;9.884;2023-02-28T14:55:53;1.37;;;1.27;;
16689;SDS011;8458;52.220;9.884;2023-02-28T14:58:22;1.50;;;1.40;;
16689;SDS011;8458;52.220;9.884;2023-02-28T15:00:50;1.80;;;1.53;;
16689;SDS011;8458;52.220;9.884;2023-02-28T15:03:20;1.70;;;1.60;;
16689;SDS011;8458;52.220;9.884;2023-02-28T15:05:52;1.40;;;1.30;;
16689;SDS011;8458;52.220;9.884;2023-02-28T15:08:20;1.57;;;1.33;;
16689;SDS011;8458;52.220;9.884;2023-02-28T15:10:50;1.53;;;1.43;;
16689;SDS011;8458;52.220;9.884;2023-02-28T15:13:18;1.87;;;1.20;;
16689;SDS011;8458;52.220;9.884;2023-02-28T15:15:47;2.33;;;1.30;;
16689;SDS011;8458;52.220;9.884;2023-02-28T15:18:21;1.53;;;1.43;;
16689;SDS011;8458;52.220;9.884;2023-02-28T15:20:57;1.77;;;1.57;;
16689;SDS011;8458;52.220;9.884;2023-02-28T15:23:28;1.60;;;1.50;;
16689;SDS011;8458;52.220;9.884;2023-02-28T15:25:55;1.80;;;1.70;;
16689;SDS011;8458;52.220;9.884;2023-02-28T15:28:23;1.23;;;1.13;;
16689;SDS011;8458;52.220;9.884;2023-02-28T15:30:51;1.27;;;1.17;;
16689;SDS011;8458;52.220;9.884;2023-02-28T15:33:21;1.63;;;1.50;;
16689;SDS011;8458;52.220;9.884;2023-02-28T15:35:49;2.10;;;1.43;;
16689;SDS011;8458;52.220;9.884;2023-02-28T15:38:21;1.87;;;1.40;;
16689;SDS011;8458;52.220;9.884;2023-02-28T15:40:50;1.97;;;1.77;;
16689;SDS011;8458;52.220;9.884;2023-02-28T15:43:23;1.97;;;1.37;;
16689;SDS011;8458;52.220;9.884;2023-02-28T15:45:52;1.47;;;1.37;;
16689;SDS011;8458;52.220;9.884;2023-02-28T15:48:24;1.53;;;1.43;;
16689;SDS011;8458;52.220;9.884;2023-02-28T15:50:53;1.70;;;1.60;;
16689;SDS011;8458;52.220;9.884;2023-02-28T15:53:23;1.63;;;1.53;;
16689;SDS011;8458;52.220;9.884;2023-02-28T15:55:53;2.83;;;1.37;;
16689;SDS011;8458;52.220;9.884;2023-02-28T15:58:21;1.63;;;1.53;;
16689;SDS011;8458;52.220;9.884;2023-02-28T16:00:59;1.60;;;1.50;;
16689;SDS011;8458;52.220;9.884;2023-02-28T16:03:41;1.60;;;1.50;;
16689;SDS011;8458;52.220;9.884;2023-02-28T16:06:23;1.80;;;1.70;;